sensor_id;sensor_type;location;lat;lon;timestamp;temperature;humidity
11894;DHT22;6006;49.696;8.662;2023-02-13T00:01:23;0.90;99.90
11894;DHT22;6006;49.696;8.662;2023-02-13T00:03:51;0.80;99.90
11894;DHT22;6006;49.696;8.662;2023-02-13T00:06:18;0.80;99.90
11894;DHT22;6006;49.696;8.662;2023-02-13T00:08:45;0.70;99.90
11894;DHT22;6006;49.696;8.662;2023-02-13T00:11:12;0.70;99.90
11894;DHT22;6006;49.696;8.662;2023-02-13T00:13:39;0.70;99.90
11894;DHT22;6006;49.696;8.662;2023-02-13T00:16:06;0.60;99.90
11894;DHT22;6006;49.696;8.662;2023-02-13T00:18:35;0.60;99.90
11894;DHT22;6006;49.696;8.662;2023-02-13T00:21:05;0.60;99.90
11894;DHT22;6006;49.696;8.662;2023-02-13T00:23:33;0.60;99.90
11894;DHT22;6006;49.696;8.662;2023-02-13T00:26:04;0.60;99.90
11894;DHT22;6006;49.696;8.662;2023-02-13T00:28:32;0.60;99.90
11894;DHT22;6006;49.696;8.662;2023-02-13T00:31:02;0.60;99.90
11894;DHT22;6006;49.696;8.662;2023-02-13T00:33:29;0.70;99.90
11894;DHT22;6006;49.696;8.662;2023-02-13T00:36:04;0.70;99.90
11894;DHT22;6006;49.696;8.662;2023-02-13T00:38:31;0.70;99.90
11894;DHT22;6006;49.696;8.662;2023-02-13T00:40:58;0.70;99.90
11894;DHT22;6006;49.696;8.662;2023-02-13T00:43:24;0.70;99.90
11894;DHT22;6006;49.696;8.662;2023-02-13T00:45:53;0.70;99.90
11894;DHT22;6006;49.696;8.662;2023-02-13T00:48:20;0.60;99.90
11894;DHT22;6006;49.696;8.662;2023-02-13T00:50:47;0.60;99.90
11894;DHT22;6006;49.696;8.662;2023-02-13T00:53:15;0.50;99.90
11894;DHT22;6006;49.696;8.662;2023-02-13T00:55:42;0.50;99.90
11894;DHT22;6006;49.696;8.662;2023-02-13T00:58:09;0.50;99.90
11894;DHT22;6006;49.696;8.662;2023-02-13T01:00:36;0.40;99.90
11894;DHT22;6006;49.696;8.662;2023-02-13T01:03:03;0.40;99.90
11894;DHT22;6006;49.696;8.662;2023-02-13T01:05:29;0.30;99.90
11894;DHT22;6006;49.696;8.662;2023-02-13T01:07:56;0.30;99.90
11894;DHT22;6006;49.696;8.662;2023-02-13T01:10:25;0.30;99.90
11894;DHT22;6006;49.696;8.662;2023-02-13T01:12:52;0.20;99.90
11894;DHT22;6006;49.696;8.662;2023-02-13T01:15:19;0.20;99.90
11894;DHT22;6006;49.696;8.662;2023-02-13T01:17:46;0.20;99.90
11894;DHT22;6006;49.696;8.662;2023-02-13T01:20:14;0.20;99.90
11894;DHT22;6006;49.696;8.662;2023-02-13T01:22:41;0.20;99.90
11894;DHT22;6006;49.696;8.662;2023-02-13T01:25:09;0.20;99.90
11894;DHT22;6006;49.696;8.662;2023-02-13T01:27:37;0.20;99.90
11894;DHT22;6006;49.696;8.662;2023-02-13T01:30:06;0.20;99.90
11894;DHT22;6006;49.696;8.662;2023-02-13T01:32:36;0.20;99.90
11894;DHT22;6006;49.696;8.662;2023-02-13T01:35:04;0.20;99.90
11894;DHT22;6006;49.696;8.662;2023-02-13T01:37:31;0.20;99.90
11894;DHT22;6006;49.696;8.662;2023-02-13T01:39:58;0.30;99.90
11894;DHT22;6006;49.696;8.662;2023-02-13T01:42:26;0.20;99.90
11894;DHT22;6006;49.696;8.662;2023-02-13T01:44:56;0.20;99.90
11894;DHT22;6006;49.696;8.662;2023-02-13T01:47:26;0.30;99.90
11894;DHT22;6006;49.696;8.662;2023-02-13T01:50:01;0.30;99.90
11894;DHT22;6006;49.696;8.662;2023-02-13T01:52:29;0.40;99.90
11894;DHT22;6006;49.696;8.662;2023-02-13T01:54:56;0.40;99.90
11894;DHT22;6006;49.696;8.662;2023-02-13T01:57:25;0.40;99.90
11894;DHT22;6006;49.696;8.662;2023-02-13T01:59:58;0.40;99.90
11894;DHT22;6006;49.696;8.662;2023-02-13T02:02:27;0.30;99.90
11894;DHT22;6006;49.696;8.662;2023-02-13T02:04:55;0.30;99.90
11894;DHT22;6006;49.696;8.662;2023-02-13T02:07:24;0.20;99.90
11894;DHT22;6006;49.696;8.662;2023-02-13T02:09:54;0.10;99.90
11894;DHT22;6006;49.696;8.662;2023-02-13T02:12:25;0.10;99.90
11894;DHT22;6006;49.696;8.662;2023-02-13T02:14:56;0.10;99.90
11894;DHT22;6006;49.696;8.662;2023-02-13T02:17:25;0.10;99.90
11894;DHT22;6006;49.696;8.662;2023-02-13T02:19:58;0.10;99.90
11894;DHT22;6006;49.696;8.662;2023-02-13T02:26:14;0.10;99.90
11894;DHT22;6006;49.696;8.662;2023-02-13T02:29:17;0.10;99.90
11894;DHT22;6006;49.696;8.662;2023-02-13T02:32:17;0.00;99.90
11894;DHT22;6006;49.696;8.662;2023-02-13T02:34:55;0.00;99.90
11894;DHT22;6006;49.696;8.662;2023-02-13T02:37:39;0.10;99.90
11894;DHT22;6006;49.696;8.662;2023-02-13T02:40:17;0.10;99.90
11894;DHT22;6006;49.696;8.662;2023-02-13T02:42:57;0.10;99.90
11894;DHT22;6006;49.696;8.662;2023-02-13T02:45:27;0.10;99.90
11894;DHT22;6006;49.696;8.662;2023-02-13T02:47:59;0.00;99.90
11894;DHT22;6006;49.696;8.662;2023-02-13T02:50:50;0.00;99.90
11894;DHT22;6006;49.696;8.662;2023-02-13T02:53:27;0.00;99.90
11894;DHT22;6006;49.696;8.662;2023-02-13T02:56:00;0.00;99.90
11894;DHT22;6006;49.696;8.662;2023-02-13T02:58:35;0.10;99.90
11894;DHT22;6006;49.696;8.662;2023-02-13T03:01:28;0.10;99.90
11894;DHT22;6006;49.696;8.662;2023-02-13T03:04:18;0.00;99.90
11894;DHT22;6006;49.696;8.662;2023-02-13T03:07:06;0.00;99.90
11894;DHT22;6006;49.696;8.662;2023-02-13T03:09:36;0.00;99.90
11894;DHT22;6006;49.696;8.662;2023-02-13T03:12:25;-0.10;99.90
11894;DHT22;6006;49.696;8.662;2023-02-13T03:15:10;-0.10;99.90
11894;DHT22;6006;49.696;8.662;2023-02-13T03:17:37;-0.20;99.90
11894;DHT22;6006;49.696;8.662;2023-02-13T03:20:29;-0.20;99.90
11894;DHT22;6006;49.696;8.662;2023-02-13T03:23:25;-0.30;99.90
11894;DHT22;6006;49.696;8.662;2023-02-13T03:29:13;-0.30;99.90
11894;DHT22;6006;49.696;8.662;2023-02-13T03:32:08;-0.30;99.90
11894;DHT22;6006;49.696;8.662;2023-02-13T03:34:40;-0.30;99.90
11894;DHT22;6006;49.696;8.662;2023-02-13T03:37:30;-0.20;99.90
11894;DHT22;6006;49.696;8.662;2023-02-13T03:40:20;-0.10;99.90
11894;DHT22;6006;49.696;8.662;2023-02-13T03:42:52;0.00;99.90
11894;DHT22;6006;49.696;8.662;2023-02-13T03:45:22;0.10;99.90
11894;DHT22;6006;49.696;8.662;2023-02-13T03:48:09;0.10;99.90
11894;DHT22;6006;49.696;8.662;2023-02-13T03:50:58;0.10;99.90
11894;DHT22;6006;49.696;8.662;2023-02-13T03:53:27;0.20;99.90
11894;DHT22;6006;49.696;8.662;2023-02-13T03:55:56;0.20;99.90
11894;DHT22;6006;49.696;8.662;2023-02-13T03:58:44;0.20;99.90
11894;DHT22;6006;49.696;8.662;2023-02-13T04:01:31;0.20;99.90
11894;DHT22;6006;49.696;8.662;2023-02-13T04:04:04;0.00;99.90
11894;DHT22;6006;49.696;8.662;2023-02-13T04:06:38;-0.10;99.90
11894;DHT22;6006;49.696;8.662;2023-02-13T04:09:09;-0.20;99.90
11894;DHT22;6006;49.696;8.662;2023-02-13T04:11:39;-0.20;99.90
11894;DHT22;6006;49.696;8.662;2023-02-13T04:14:14;-0.30;99.90
11894;DHT22;6006;49.696;8.662;2023-02-13T04:16:45;-0.20;99.90
11894;DHT22;6006;49.696;8.662;2023-02-13T04:19:14;-0.20;99.90
11894;DHT22;6006;49.696;8.662;2023-02-13T04:21:41;-0.10;99.90
11894;DHT22;6006;49.696;8.662;2023-02-13T04:24:09;0.00;99.90
11894;DHT22;6006;49.696;8.662;2023-02-13T04:26:38;0.10;99.90
11894;DHT22;6006;49.696;8.662;2023-02-13T04:29:05;0.20;99.90
11894;DHT22;6006;49.696;8.662;2023-02-13T04:31:33;0.30;99.90
11894;DHT22;6006;49.696;8.662;2023-02-13T04:34:00;0.40;99.90
11894;DHT22;6006;49.696;8.662;2023-02-13T04:36:27;0.40;99.90
11894;DHT22;6006;49.696;8.662;2023-02-13T04:38:54;0.60;99.90
11894;DHT22;6006;49.696;8.662;2023-02-13T04:41:22;0.70;99.90
11894;DHT22;6006;49.696;8.662;2023-02-13T04:43:49;1.00;99.90
11894;DHT22;6006;49.696;8.662;2023-02-13T04:46:17;0.90;99.90
11894;DHT22;6006;49.696;8.662;2023-02-13T04:48:43;0.80;99.90
11894;DHT22;6006;49.696;8.662;2023-02-13T04:51:10;0.60;99.90
11894;DHT22;6006;49.696;8.662;2023-02-13T04:53:37;0.70;99.90
11894;DHT22;6006;49.696;8.662;2023-02-13T04:56:04;0.70;99.90
11894;DHT22;6006;49.696;8.662;2023-02-13T04:58:32;0.60;99.90
11894;DHT22;6006;49.696;8.662;2023-02-13T05:00:59;0.50;99.90
11894;DHT22;6006;49.696;8.662;2023-02-13T05:03:26;0.50;99.90
11894;DHT22;6006;49.696;8.662;2023-02-13T05:05:53;0.50;99.90
11894;DHT22;6006;49.696;8.662;2023-02-13T05:08:21;0.50;99.90
11894;DHT22;6006;49.696;8.662;2023-02-13T05:10:48;0.40;99.90
11894;DHT22;6006;49.696;8.662;2023-02-13T05:13:14;0.40;99.90
11894;DHT22;6006;49.696;8.662;2023-02-13T05:15:43;0.30;99.90
11894;DHT22;6006;49.696;8.662;2023-02-13T05:18:09;0.20;99.90
11894;DHT22;6006;49.696;8.662;2023-02-13T05:20:36;0.20;99.90
11894;DHT22;6006;49.696;8.662;2023-02-13T05:23:03;0.10;99.90
11894;DHT22;6006;49.696;8.662;2023-02-13T05:25:47;0.10;99.90
11894;DHT22;6006;49.696;8.662;2023-02-13T05:28:14;0.20;99.90
11894;DHT22;6006;49.696;8.662;2023-02-13T05:31:00;0.20;99.90
11894;DHT22;6006;49.696;8.662;2023-02-13T05:33:27;0.20;99.90
11894;DHT22;6006;49.696;8.662;2023-02-13T05:35:54;0.30;99.90
11894;DHT22;6006;49.696;8.662;2023-02-13T05:38:20;0.30;99.90
11894;DHT22;6006;49.696;8.662;2023-02-13T05:40:47;0.40;99.90
11894;DHT22;6006;49.696;8.662;2023-02-13T05:43:14;0.30;99.90
11894;DHT22;6006;49.696;8.662;2023-02-13T05:45:41;0.30;99.90
11894;DHT22;6006;49.696;8.662;2023-02-13T05:48:09;0.30;99.90
11894;DHT22;6006;49.696;8.662;2023-02-13T05:50:37;0.20;99.90
11894;DHT22;6006;49.696;8.662;2023-02-13T05:53:04;0.20;99.90
11894;DHT22;6006;49.696;8.662;2023-02-13T05:55:30;0.10;99.90
11894;DHT22;6006;49.696;8.662;2023-02-13T05:57:57;0.10;99.90
11894;DHT22;6006;49.696;8.662;2023-02-13T06:00:24;0.10;99.90
11894;DHT22;6006;49.696;8.662;2023-02-13T06:02:51;0.00;99.90
11894;DHT22;6006;49.696;8.662;2023-02-13T06:05:19;0.10;99.90
11894;DHT22;6006;49.696;8.662;2023-02-13T06:07:46;0.10;99.90
11894;DHT22;6006;49.696;8.662;2023-02-13T06:10:13;0.10;99.90
11894;DHT22;6006;49.696;8.662;2023-02-13T06:12:41;0.20;99.90
11894;DHT22;6006;49.696;8.662;2023-02-13T06:15:08;0.20;99.90
11894;DHT22;6006;49.696;8.662;2023-02-13T06:17:35;0.20;99.90
11894;DHT22;6006;49.696;8.662;2023-02-13T06:20:02;0.30;99.90
11894;DHT22;6006;49.696;8.662;2023-02-13T06:22:31;0.30;99.90
11894;DHT22;6006;49.696;8.662;2023-02-13T06:24:57;0.30;99.90
11894;DHT22;6006;49.696;8.662;2023-02-13T06:27:24;0.40;99.90
11894;DHT22;6006;49.696;8.662;2023-02-13T06:29:51;0.50;99.90
11894;DHT22;6006;49.696;8.662;2023-02-13T06:32:18;0.50;99.90
11894;DHT22;6006;49.696;8.662;2023-02-13T06:34:45;0.50;99.90
11894;DHT22;6006;49.696;8.662;2023-02-13T06:37:12;0.50;99.90
11894;DHT22;6006;49.696;8.662;2023-02-13T06:39:40;0.50;99.90
11894;DHT22;6006;49.696;8.662;2023-02-13T06:42:07;0.40;99.90
11894;DHT22;6006;49.696;8.662;2023-02-13T06:44:34;0.40;99.90
11894;DHT22;6006;49.696;8.662;2023-02-13T06:47:01;0.40;99.90
11894;DHT22;6006;49.696;8.662;2023-02-13T06:49:27;0.50;99.90
11894;DHT22;6006;49.696;8.662;2023-02-13T06:51:54;0.50;99.90
11894;DHT22;6006;49.696;8.662;2023-02-13T06:54:21;0.50;99.90
11894;DHT22;6006;49.696;8.662;2023-02-13T06:56:49;0.50;99.90
11894;DHT22;6006;49.696;8.662;2023-02-13T06:59:16;0.50;99.90
11894;DHT22;6006;49.696;8.662;2023-02-13T07:01:43;0.50;99.90
11894;DHT22;6006;49.696;8.662;2023-02-13T07:04:10;0.50;99.90
11894;DHT22;6006;49.696;8.662;2023-02-13T07:06:37;0.50;99.90
11894;DHT22;6006;49.696;8.662;2023-02-13T07:09:04;0.60;99.90
11894;DHT22;6006;49.696;8.662;2023-02-13T07:11:31;0.60;99.90
11894;DHT22;6006;49.696;8.662;2023-02-13T07:13:59;0.60;99.90
11894;DHT22;6006;49.696;8.662;2023-02-13T07:16:26;0.70;99.90
11894;DHT22;6006;49.696;8.662;2023-02-13T07:18:53;0.80;99.90
11894;DHT22;6006;49.696;8.662;2023-02-13T07:21:20;0.80;99.90
11894;DHT22;6006;49.696;8.662;2023-02-13T07:23:46;0.80;99.90
11894;DHT22;6006;49.696;8.662;2023-02-13T07:26:13;0.90;99.90
11894;DHT22;6006;49.696;8.662;2023-02-13T07:28:41;0.90;99.90
11894;DHT22;6006;49.696;8.662;2023-02-13T07:31:09;0.90;99.90
11894;DHT22;6006;49.696;8.662;2023-02-13T07:33:36;0.90;99.90
11894;DHT22;6006;49.696;8.662;2023-02-13T07:36:04;0.90;99.90
11894;DHT22;6006;49.696;8.662;2023-02-13T07:38:31;1.00;99.90
11894;DHT22;6006;49.696;8.662;2023-02-13T07:40:59;1.10;99.90
11894;DHT22;6006;49.696;8.662;2023-02-13T07:43:26;1.10;99.90
11894;DHT22;6006;49.696;8.662;2023-02-13T07:45:53;1.00;99.90
11894;DHT22;6006;49.696;8.662;2023-02-13T07:48:22;1.00;99.90
11894;DHT22;6006;49.696;8.662;2023-02-13T07:50:53;1.00;99.90
11894;DHT22;6006;49.696;8.662;2023-02-13T07:53:20;0.90;99.90
11894;DHT22;6006;49.696;8.662;2023-02-13T07:55:47;0.90;99.90
11894;DHT22;6006;49.696;8.662;2023-02-13T07:58:14;1.00;99.90
11894;DHT22;6006;49.696;8.662;2023-02-13T08:00:40;1.10;99.90
11894;DHT22;6006;49.696;8.662;2023-02-13T08:03:10;1.10;99.90
11894;DHT22;6006;49.696;8.662;2023-02-13T08:05:38;1.20;99.90
11894;DHT22;6006;49.696;8.662;2023-02-13T08:08:06;1.20;99.90
11894;DHT22;6006;49.696;8.662;2023-02-13T08:10:33;1.20;99.90
11894;DHT22;6006;49.696;8.662;2023-02-13T08:13:18;1.30;99.90
11894;DHT22;6006;49.696;8.662;2023-02-13T08:15:45;1.40;99.90
11894;DHT22;6006;49.696;8.662;2023-02-13T08:18:12;1.40;99.90
11894;DHT22;6006;49.696;8.662;2023-02-13T08:20:40;1.50;99.90
11894;DHT22;6006;49.696;8.662;2023-02-13T08:23:09;1.50;99.90
11894;DHT22;6006;49.696;8.662;2023-02-13T08:25:36;1.60;99.90
11894;DHT22;6006;49.696;8.662;2023-02-13T08:28:04;1.70;99.90
11894;DHT22;6006;49.696;8.662;2023-02-13T08:30:31;1.70;99.90
11894;DHT22;6006;49.696;8.662;2023-02-13T08:32:57;1.90;99.90
11894;DHT22;6006;49.696;8.662;2023-02-13T08:35:24;2.00;99.90
11894;DHT22;6006;49.696;8.662;2023-02-13T08:37:55;2.10;99.90
11894;DHT22;6006;49.696;8.662;2023-02-13T08:40:22;2.20;99.90
11894;DHT22;6006;49.696;8.662;2023-02-13T08:42:49;2.20;99.90
11894;DHT22;6006;49.696;8.662;2023-02-13T08:45:16;2.30;99.90
11894;DHT22;6006;49.696;8.662;2023-02-13T08:47:43;2.40;99.90
11894;DHT22;6006;49.696;8.662;2023-02-13T08:50:10;2.50;99.90
11894;DHT22;6006;49.696;8.662;2023-02-13T08:52:37;2.50;99.90
11894;DHT22;6006;49.696;8.662;2023-02-13T08:55:05;2.60;99.90
11894;DHT22;6006;49.696;8.662;2023-02-13T08:57:33;2.70;99.90
11894;DHT22;6006;49.696;8.662;2023-02-13T09:00:00;2.90;99.90
11894;DHT22;6006;49.696;8.662;2023-02-13T09:02:26;3.00;99.90
11894;DHT22;6006;49.696;8.662;2023-02-13T09:04:53;3.10;99.90
11894;DHT22;6006;49.696;8.662;2023-02-13T09:07:20;3.30;99.90
11894;DHT22;6006;49.696;8.662;2023-02-13T09:09:47;3.50;99.90
11894;DHT22;6006;49.696;8.662;2023-02-13T09:12:15;3.70;99.90
11894;DHT22;6006;49.696;8.662;2023-02-13T09:14:42;3.90;99.90
11894;DHT22;6006;49.696;8.662;2023-02-13T09:17:09;4.10;99.90
11894;DHT22;6006;49.696;8.662;2023-02-13T09:19:36;4.40;99.90
11894;DHT22;6006;49.696;8.662;2023-02-13T09:22:03;4.60;99.90
11894;DHT22;6006;49.696;8.662;2023-02-13T09:24:29;4.90;99.90
11894;DHT22;6006;49.696;8.662;2023-02-13T09:26:56;5.20;99.90
11894;DHT22;6006;49.696;8.662;2023-02-13T09:29:25;5.30;99.90
11894;DHT22;6006;49.696;8.662;2023-02-13T09:31:54;5.50;99.90
11894;DHT22;6006;49.696;8.662;2023-02-13T09:34:21;5.80;99.90
11894;DHT22;6006;49.696;8.662;2023-02-13T09:36:50;5.90;99.90
11894;DHT22;6006;49.696;8.662;2023-02-13T09:39:17;6.10;99.90
11894;DHT22;6006;49.696;8.662;2023-02-13T09:41:47;6.30;99.90
11894;DHT22;6006;49.696;8.662;2023-02-13T09:44:18;6.60;99.90
11894;DHT22;6006;49.696;8.662;2023-02-13T09:47:03;6.80;99.90
11894;DHT22;6006;49.696;8.662;2023-02-13T09:49:34;7.00;99.90
11894;DHT22;6006;49.696;8.662;2023-02-13T09:52:02;7.20;99.90
11894;DHT22;6006;49.696;8.662;2023-02-13T09:54:29;7.40;99.90
11894;DHT22;6006;49.696;8.662;2023-02-13T09:57:00;7.70;19.30
11894;DHT22;6006;49.696;8.662;2023-02-13T09:59:48;7.90;1.00
11894;DHT22;6006;49.696;8.662;2023-02-13T10:05:20;8.00;1.00
11894;DHT22;6006;49.696;8.662;2023-02-13T10:07:56;8.10;1.00
11894;DHT22;6006;49.696;8.662;2023-02-13T10:10:29;8.10;1.00
11894;DHT22;6006;49.696;8.662;2023-02-13T10:13:11;8.20;1.00
11894;DHT22;6006;49.696;8.662;2023-02-13T10:15:43;8.40;1.00
11894;DHT22;6006;49.696;8.662;2023-02-13T10:18:20;8.40;1.00
11894;DHT22;6006;49.696;8.662;2023-02-13T10:20:49;8.50;1.00
11894;DHT22;6006;49.696;8.662;2023-02-13T10:23:21;8.60;1.00
11894;DHT22;6006;49.696;8.662;2023-02-13T10:25:53;8.70;1.00
11894;DHT22;6006;49.696;8.662;2023-02-13T10:28:29;8.80;1.00
11894;DHT22;6006;49.696;8.662;2023-02-13T10:31:03;8.90;1.00
11894;DHT22;6006;49.696;8.662;2023-02-13T10:33:35;9.00;99.90
11894;DHT22;6006;49.696;8.662;2023-02-13T10:36:10;9.20;88.70
11894;DHT22;6006;49.696;8.662;2023-02-13T10:38:43;9.50;21.90
11894;DHT22;6006;49.696;8.662;2023-02-13T10:41:22;9.80;1.00
11894;DHT22;6006;49.696;8.662;2023-02-13T10:44:09;9.80;78.40
11894;DHT22;6006;49.696;8.662;2023-02-13T10:46:48;10.10;99.90
11894;DHT22;6006;49.696;8.662;2023-02-13T10:49:45;10.30;40.20
11894;DHT22;6006;49.696;8.662;2023-02-13T10:52:24;10.50;21.80
11894;DHT22;6006;49.696;8.662;2023-02-13T10:55:04;10.50;1.00
11894;DHT22;6006;49.696;8.662;2023-02-13T11:00:39;10.60;1.00
11894;DHT22;6006;49.696;8.662;2023-02-13T11:03:16;10.60;1.00
11894;DHT22;6006;49.696;8.662;2023-02-13T11:05:45;10.70;99.90
11894;DHT22;6006;49.696;8.662;2023-02-13T11:08:17;10.70;1.00
11894;DHT22;6006;49.696;8.662;2023-02-13T11:10:44;11.00;1.00
11894;DHT22;6006;49.696;8.662;2023-02-13T11:13:16;11.00;1.00
11894;DHT22;6006;49.696;8.662;2023-02-13T11:16:00;11.10;99.90
11894;DHT22;6006;49.696;8.662;2023-02-13T11:18:28;11.50;99.90
11894;DHT22;6006;49.696;8.662;2023-02-13T11:21:05;11.50;99.90
11894;DHT22;6006;49.696;8.662;2023-02-13T11:23:36;11.40;99.90
11894;DHT22;6006;49.696;8.662;2023-02-13T11:26:05;11.40;99.90
11894;DHT22;6006;49.696;8.662;2023-02-13T11:28:36;11.70;1.00
11894;DHT22;6006;49.696;8.662;2023-02-13T11:31:14;11.70;99.90
11894;DHT22;6006;49.696;8.662;2023-02-13T11:33:45;11.80;99.90
11894;DHT22;6006;49.696;8.662;2023-02-13T11:36:15;11.90;99.90
11894;DHT22;6006;49.696;8.662;2023-02-13T11:38:42;11.70;1.00
11894;DHT22;6006;49.696;8.662;2023-02-13T11:41:11;11.80;1.00
11894;DHT22;6006;49.696;8.662;2023-02-13T11:43:45;12.10;99.90
11894;DHT22;6006;49.696;8.662;2023-02-13T11:46:17;12.20;99.90
11894;DHT22;6006;49.696;8.662;2023-02-13T11:48:56;12.60;1.00
11894;DHT22;6006;49.696;8.662;2023-02-13T11:51:42;12.60;99.90
11894;DHT22;6006;49.696;8.662;2023-02-13T11:54:25;12.40;91.00
11894;DHT22;6006;49.696;8.662;2023-02-13T11:56:54;12.70;1.00
11894;DHT22;6006;49.696;8.662;2023-02-13T11:59:22;12.70;62.50
11894;DHT22;6006;49.696;8.662;2023-02-13T12:02:01;12.70;99.90
11894;DHT22;6006;49.696;8.662;2023-02-13T12:04:29;12.80;1.00
11894;DHT22;6006;49.696;8.662;2023-02-13T12:07:00;13.00;1.00
11894;DHT22;6006;49.696;8.662;2023-02-13T12:09:28;13.00;34.00
11894;DHT22;6006;49.696;8.662;2023-02-13T12:11:57;13.40;1.00
11894;DHT22;6006;49.696;8.662;2023-02-13T12:14:29;13.60;1.00
11894;DHT22;6006;49.696;8.662;2023-02-13T12:16:59;13.50;1.00
11894;DHT22;6006;49.696;8.662;2023-02-13T12:19:34;13.40;1.00
11894;DHT22;6006;49.696;8.662;2023-02-13T12:22:15;13.30;1.00
11894;DHT22;6006;49.696;8.662;2023-02-13T12:25:07;12.90;1.00
11894;DHT22;6006;49.696;8.662;2023-02-13T12:27:43;13.30;1.00
11894;DHT22;6006;49.696;8.662;2023-02-13T12:30:29;13.50;1.00
11894;DHT22;6006;49.696;8.662;2023-02-13T12:33:08;13.30;1.00
11894;DHT22;6006;49.696;8.662;2023-02-13T12:35:46;13.20;1.00
11894;DHT22;6006;49.696;8.662;2023-02-13T12:38:27;13.30;1.00
11894;DHT22;6006;49.696;8.662;2023-02-13T12:41:13;13.40;1.00
11894;DHT22;6006;49.696;8.662;2023-02-13T12:46:55;13.40;1.00
11894;DHT22;6006;49.696;8.662;2023-02-13T12:49:39;13.50;1.00
11894;DHT22;6006;49.696;8.662;2023-02-13T12:52:20;14.10;1.00
11894;DHT22;6006;49.696;8.662;2023-02-13T12:55:02;14.70;1.00
11894;DHT22;6006;49.696;8.662;2023-02-13T12:57:41;14.40;1.00
11894;DHT22;6006;49.696;8.662;2023-02-13T13:00:18;14.30;1.00
11894;DHT22;6006;49.696;8.662;2023-02-13T13:05:58;14.20;1.00
11894;DHT22;6006;49.696;8.662;2023-02-13T13:08:43;14.00;1.00
11894;DHT22;6006;49.696;8.662;2023-02-13T13:11:24;14.40;1.00
11894;DHT22;6006;49.696;8.662;2023-02-13T13:14:03;14.20;1.00
11894;DHT22;6006;49.696;8.662;2023-02-13T13:16:39;14.30;1.00
11894;DHT22;6006;49.696;8.662;2023-02-13T13:19:21;13.90;1.00
11894;DHT22;6006;49.696;8.662;2023-02-13T13:21:55;13.60;1.00
11894;DHT22;6006;49.696;8.662;2023-02-13T13:24:35;13.60;1.00
11894;DHT22;6006;49.696;8.662;2023-02-13T13:27:19;13.70;1.00
11894;DHT22;6006;49.696;8.662;2023-02-13T13:29:51;14.30;1.00
11894;DHT22;6006;49.696;8.662;2023-02-13T13:32:20;14.40;1.00
11894;DHT22;6006;49.696;8.662;2023-02-13T13:34:48;14.20;1.00
11894;DHT22;6006;49.696;8.662;2023-02-13T13:37:20;14.10;1.00
11894;DHT22;6006;49.696;8.662;2023-02-13T13:39:56;14.00;1.00
11894;DHT22;6006;49.696;8.662;2023-02-13T13:42:34;13.90;1.00
11894;DHT22;6006;49.696;8.662;2023-02-13T13:45:17;14.00;1.00
11894;DHT22;6006;49.696;8.662;2023-02-13T13:48:02;14.10;1.00
11894;DHT22;6006;49.696;8.662;2023-02-13T13:50:35;14.20;1.00
11894;DHT22;6006;49.696;8.662;2023-02-13T13:53:08;14.30;1.00
11894;DHT22;6006;49.696;8.662;2023-02-13T13:56:06;14.10;1.00
11894;DHT22;6006;49.696;8.662;2023-02-13T13:58:40;14.30;1.00
11894;DHT22;6006;49.696;8.662;2023-02-13T14:01:24;14.50;1.00
11894;DHT22;6006;49.696;8.662;2023-02-13T14:03:53;14.50;1.00
11894;DHT22;6006;49.696;8.662;2023-02-13T14:06:21;14.30;1.00
11894;DHT22;6006;49.696;8.662;2023-02-13T14:08:57;14.00;1.00
11894;DHT22;6006;49.696;8.662;2023-02-13T14:11:36;14.00;1.00
11894;DHT22;6006;49.696;8.662;2023-02-13T14:19:58;14.20;1.00
11894;DHT22;6006;49.696;8.662;2023-02-13T14:22:31;14.30;1.00
11894;DHT22;6006;49.696;8.662;2023-02-13T14:25:01;14.40;1.00
11894;DHT22;6006;49.696;8.662;2023-02-13T14:27:31;15.10;1.00
11894;DHT22;6006;49.696;8.662;2023-02-13T14:29:59;15.30;99.90
11894;DHT22;6006;49.696;8.662;2023-02-13T14:32:30;15.50;1.00
11894;DHT22;6006;49.696;8.662;2023-02-13T14:34:59;15.20;99.90
11894;DHT22;6006;49.696;8.662;2023-02-13T14:37:34;15.40;1.00
11894;DHT22;6006;49.696;8.662;2023-02-13T14:40:41;15.50;1.00
11894;DHT22;6006;49.696;8.662;2023-02-13T14:43:30;15.30;99.90
11894;DHT22;6006;49.696;8.662;2023-02-13T14:46:06;14.80;1.00
11894;DHT22;6006;49.696;8.662;2023-02-13T14:48:40;14.80;1.00
11894;DHT22;6006;49.696;8.662;2023-02-13T14:51:19;14.60;1.00
11894;DHT22;6006;49.696;8.662;2023-02-13T14:53:57;14.50;1.00
11894;DHT22;6006;49.696;8.662;2023-02-13T14:56:25;14.90;1.00
11894;DHT22;6006;49.696;8.662;2023-02-13T14:58:55;15.50;1.00
11894;DHT22;6006;49.696;8.662;2023-02-13T15:01:34;15.30;1.00
11894;DHT22;6006;49.696;8.662;2023-02-13T15:04:10;15.30;1.00
11894;DHT22;6006;49.696;8.662;2023-02-13T15:06:40;15.00;1.00
11894;DHT22;6006;49.696;8.662;2023-02-13T15:09:18;14.70;1.00
11894;DHT22;6006;49.696;8.662;2023-02-13T15:11:46;14.40;1.00
11894;DHT22;6006;49.696;8.662;2023-02-13T15:14:21;14.10;1.00
11894;DHT22;6006;49.696;8.662;2023-02-13T15:16:52;14.10;1.00
11894;DHT22;6006;49.696;8.662;2023-02-13T15:19:22;14.30;1.00
11894;DHT22;6006;49.696;8.662;2023-02-13T15:21:52;14.40;1.00
11894;DHT22;6006;49.696;8.662;2023-02-13T15:24:20;14.50;1.00
11894;DHT22;6006;49.696;8.662;2023-02-13T15:27:00;14.70;1.00
11894;DHT22;6006;49.696;8.662;2023-02-13T15:29:28;14.70;1.00
11894;DHT22;6006;49.696;8.662;2023-02-13T15:31:56;14.20;1.00
11894;DHT22;6006;49.696;8.662;2023-02-13T15:34:26;13.80;1.00
11894;DHT22;6006;49.696;8.662;2023-02-13T15:36:54;13.40;1.00
11894;DHT22;6006;49.696;8.662;2023-02-13T15:39:24;13.30;1.00
11894;DHT22;6006;49.696;8.662;2023-02-13T15:41:54;13.20;1.00
11894;DHT22;6006;49.696;8.662;2023-02-13T15:44:26;13.10;1.00
11894;DHT22;6006;49.696;8.662;2023-02-13T15:46:56;12.90;1.00
11894;DHT22;6006;49.696;8.662;2023-02-13T15:49:26;13.00;1.00
11894;DHT22;6006;49.696;8.662;2023-02-13T15:52:02;12.70;1.00
11894;DHT22;6006;49.696;8.662;2023-02-13T15:54:31;12.40;1.00
11894;DHT22;6006;49.696;8.662;2023-02-13T15:57:02;12.00;99.90
11894;DHT22;6006;49.696;8.662;2023-02-13T15:59:33;11.50;99.90
11894;DHT22;6006;49.696;8.662;2023-02-13T16:02:01;11.20;1.00
11894;DHT22;6006;49.696;8.662;2023-02-13T16:04:30;11.10;1.00
11894;DHT22;6006;49.696;8.662;2023-02-13T16:06:58;10.70;1.00
11894;DHT22;6006;49.696;8.662;2023-02-13T16:09:29;10.60;98.50
11894;DHT22;6006;49.696;8.662;2023-02-13T16:12:00;10.50;99.90
11894;DHT22;6006;49.696;8.662;2023-02-13T16:14:28;10.30;99.90
11894;DHT22;6006;49.696;8.662;2023-02-13T16:16:58;10.20;99.90
11894;DHT22;6006;49.696;8.662;2023-02-13T16:19:30;10.00;1.00
11894;DHT22;6006;49.696;8.662;2023-02-13T16:22:02;9.80;1.00
11894;DHT22;6006;49.696;8.662;2023-02-13T16:24:31;9.60;17.20
11894;DHT22;6006;49.696;8.662;2023-02-13T16:26:58;9.50;99.90
11894;DHT22;6006;49.696;8.662;2023-02-13T16:29:26;9.30;99.90
11894;DHT22;6006;49.696;8.662;2023-02-13T16:32:03;9.10;1.00
11894;DHT22;6006;49.696;8.662;2023-02-13T16:34:32;8.90;99.90
11894;DHT22;6006;49.696;8.662;2023-02-13T16:36:59;8.60;1.00
11894;DHT22;6006;49.696;8.662;2023-02-13T16:39:28;8.50;99.90
11894;DHT22;6006;49.696;8.662;2023-02-13T16:41:55;8.30;1.00
11894;DHT22;6006;49.696;8.662;2023-02-13T16:44:24;8.10;1.00
11894;DHT22;6006;49.696;8.662;2023-02-13T16:46:53;7.90;99.90
11894;DHT22;6006;49.696;8.662;2023-02-13T16:49:26;7.80;99.90
11894;DHT22;6006;49.696;8.662;2023-02-13T16:51:57;7.60;1.00
11894;DHT22;6006;49.696;8.662;2023-02-13T16:54:30;7.30;1.00